Time;durP1;ratioP1;P1;durP2;ratioP2;P2;SDS_P1;SDS_P2;PMS_P1;PMS_P2;Temp;Humidity;BMP_temperature;BMP_pressure;BME280_temperature;BME280_humidity;BME280_pressure;Samples;Min_cycle;Max_cycle;Signal;HPM_P1;HPM_P2
2023/04/26 00:01:21;;;;;;;;;;;4.10;69.70;;;;;;4104380;28;19920;-85
2023/04/26 00:03:22;;;;;;;;;;;4.10;69.60;;;;;;4125102;28;19914;-84
2023/04/26 00:05:23;;;;;;;;;;;4.10;69.50;;;;;;4123723;28;20539;-84
2023/04/26 00:07:24;;;;;;;;;;;4.10;69.30;;;;;;4111472;28;19915;-85
2023/04/26 00:09:25;;;;;;;;;;;4.20;69.30;;;;;;4110793;28;20450;-85
2023/04/26 00:11:25;;;;;;;;;;;4.10;69.20;;;;;;4110598;28;20336;-85
2023/04/26 00:13:26;;;;;;;;;;;4.10;69.10;;;;;;4094841;28;20008;-85
2023/04/26 00:15:27;;;;;;;;;;;4.10;69.00;;;;;;4106247;28;20518;-85
2023/04/26 00:17:27;;;;;;;;;;;4.30;69.00;;;;;;4109027;28;20392;-85
2023/04/26 00:19:28;;;;;;;;;;;4.10;68.90;;;;;;4110563;28;19976;-85
2023/04/26 00:21:29;;;;;;;;;;;4.20;69.10;;;;;;4114639;28;20372;-86
2023/04/26 00:23:30;;;;;;;;;;;4.20;69.40;;;;;;4120387;28;19921;-85
2023/04/26 00:25:31;;;;;;;;;;;4.10;69.30;;;;;;4102499;28;19914;-84
2023/04/26 00:27:32;;;;;;;;;;;4.10;69.30;;;;;;4116729;28;19949;-86
2023/04/26 00:29:32;;;;;;;;;;;4.10;69.20;;;;;;4115079;28;20380;-86
2023/04/26 00:31:33;;;;;;;;;;;4.10;69.10;;;;;;4094626;28;20130;-85
2023/04/26 00:33:34;;;;;;;;;;;4.10;68.90;;;;;;4108931;28;19925;-85
2023/04/26 00:35:36;;;;;;;;;;;4.10;68.90;;;;;;4106201;28;20321;-85
2023/04/26 00:37:37;;;;;;;;;;;4.10;68.70;;;;;;4095035;28;20319;-86
2023/04/26 00:39:38;;;;;;;;;;;4.10;68.50;;;;;;4099709;28;20009;-86
2023/04/26 00:41:38;;;;;;;;;;;4.20;68.40;;;;;;4107957;28;19918;-85
2023/04/26 00:43:59;;;;;;;;;;;4.10;68.10;;;;;;4105369;28;19957;-85
2023/04/26 00:46:00;;;;;;;;;;;4.10;68.00;;;;;;4103714;28;20372;-86
2023/04/26 00:48:02;;;;;;;;;;;4.20;67.90;;;;;;4115461;28;20235;-86
2023/04/26 00:50:03;;;;;;;;;;;4.20;67.80;;;;;;4120168;28;19914;-86
2023/04/26 00:52:05;;;;;;;;;;;4.10;67.70;;;;;;4121187;28;19945;-86
2023/04/26 00:54:07;;;;;;;;;;;4.20;67.70;;;;;;4114078;28;19926;-86
2023/04/26 00:56:08;;;;;;;;;;;4.20;67.60;;;;;;4107597;28;19926;-84
2023/04/26 00:58:09;;;;;;;;;;;4.10;67.50;;;;;;4110367;28;19918;-87
2023/04/26 01:00:20;;;;;;;;;;;4.20;67.60;;;;;;4105699;28;19918;-85
2023/04/26 01:02:41;;;;;;;;;;;4.00;67.40;;;;;;4109247;28;20009;-86
2023/04/26 01:05:01;;;;;;;;;;;4.10;67.40;;;;;;4106380;28;19995;-86
2023/04/26 01:07:12;;;;;;;;;;;4.20;67.50;;;;;;4109598;28;19914;-85
2023/04/26 01:09:16;;;;;;;;;;;4.10;67.50;;;;;;4093382;28;20459;-85
2023/04/26 01:11:21;;;;;;;;;;;4.00;67.40;;;;;;4110967;28;20005;-85
2023/04/26 01:13:22;;;;;;;;;;;4.00;67.40;;;;;;4093781;28;20026;-86
2023/04/26 01:15:23;;;;;;;;;;;4.00;67.40;;;;;;4106838;28;20436;-86
2023/04/26 01:17:24;;;;;;;;;;;4.00;67.30;;;;;;4092084;28;19914;-85
2023/04/26 01:19:25;;;;;;;;;;;4.10;67.40;;;;;;4108095;28;19918;-85
2023/04/26 01:21:25;;;;;;;;;;;4.00;67.20;;;;;;4106380;28;19954;-85
2023/04/26 01:23:26;;;;;;;;;;;4.00;67.20;;;;;;4103508;28;19922;-86
2023/04/26 01:25:27;;;;;;;;;;;4.00;67.20;;;;;;4109836;28;20450;-86
2023/04/26 01:27:27;;;;;;;;;;;3.90;67.10;;;;;;4109544;28;20335;-86
2023/04/26 01:29:29;;;;;;;;;;;3.90;67.00;;;;;;4103327;28;19918;-86
2023/04/26 01:31:30;;;;;;;;;;;3.90;67.10;;;;;;4105513;28;19983;-86
2023/04/26 01:33:30;;;;;;;;;;;4.00;67.20;;;;;;4107996;28;19918;-85
2023/04/26 01:35:51;;;;;;;;;;;3.90;67.10;;;;;;4108258;28;19922;-85
2023/04/26 01:38:13;;;;;;;;;;;3.90;67.00;;;;;;4106361;28;19921;-85
2023/04/26 01:40:15;;;;;;;;;;;3.90;67.20;;;;;;4109825;28;19922;-85
2023/04/26 01:42:36;;;;;;;;;;;3.90;67.20;;;;;;4102556;28;19930;-85
2023/04/26 01:44:56;;;;;;;;;;;4.00;67.60;;;;;;4104596;28;19936;-85
2023/04/26 01:47:17;;;;;;;;;;;4.00;67.60;;;;;;4109854;28;19914;-85
2023/04/26 01:49:37;;;;;;;;;;;4.00;67.60;;;;;;4106665;28;20033;-85
2023/04/26 01:51:58;;;;;;;;;;;3.90;67.50;;;;;;4104967;28;19993;-85
2023/04/26 01:54:19;;;;;;;;;;;3.90;67.70;;;;;;4104960;28;19930;-85
2023/04/26 01:56:19;;;;;;;;;;;3.90;67.70;;;;;;4107010;28;20017;-85
2023/04/26 01:58:25;;;;;;;;;;;4.00;67.80;;;;;;4107115;28;19922;-86
2023/04/26 02:00:27;;;;;;;;;;;3.90;68.00;;;;;;4107503;28;19925;-85
2023/04/26 02:02:28;;;;;;;;;;;4.00;68.00;;;;;;4108743;28;19917;-85
2023/04/26 02:04:28;;;;;;;;;;;4.10;68.20;;;;;;4108537;28;19922;-86
2023/04/26 02:06:31;;;;;;;;;;;3.90;68.20;;;;;;4108812;28;20018;-85
2023/04/26 02:08:31;;;;;;;;;;;3.90;68.20;;;;;;4108125;28;19914;-86
2023/04/26 02:10:32;;;;;;;;;;;4.00;68.50;;;;;;4107023;28;20428;-86
2023/04/26 02:12:33;;;;;;;;;;;3.90;68.30;;;;;;4094558;28;19924;-85
2023/04/26 02:14:33;;;;;;;;;;;4.00;68.30;;;;;;4110380;28;20328;-85
2023/04/26 02:16:34;;;;;;;;;;;3.90;68.30;;;;;;4110530;28;19968;-85
2023/04/26 02:18:34;;;;;;;;;;;3.90;68.20;;;;;;4114814;28;20747;-86
2023/04/26 02:20:36;;;;;;;;;;;3.90;69.00;;;;;;4115561;28;19918;-85
2023/04/26 02:22:37;;;;;;;;;;;3.90;68.20;;;;;;4113213;28;20016;-84
2023/04/26 02:24:37;;;;;;;;;;;4.00;68.30;;;;;;4112535;28;20102;-86
2023/04/26 02:26:38;;;;;;;;;;;3.90;68.10;;;;;;4111672;28;19918;-85
2023/04/26 02:28:39;;;;;;;;;;;3.90;68.00;;;;;;4110386;28;19918;-85
2023/04/26 02:30:39;;;;;;;;;;;3.90;67.90;;;;;;4114419;28;19925;-86
2023/04/26 02:32:40;;;;;;;;;;;3.90;67.80;;;;;;4096008;28;20440;-85
2023/04/26 02:34:40;;;;;;;;;;;3.90;67.70;;;;;;4108779;28;20392;-85
2023/04/26 02:36:41;;;;;;;;;;;3.80;67.60;;;;;;4110562;28;19950;-85
2023/04/26 02:38:42;;;;;;;;;;;3.80;67.60;;;;;;4110718;28;19957;-86
2023/04/26 02:40:42;;;;;;;;;;;3.80;67.60;;;;;;4109567;28;19945;-85
2023/04/26 02:42:43;;;;;;;;;;;3.80;67.60;;;;;;4107972;28;20355;-85
2023/04/26 02:44:43;;;;;;;;;;;3.80;67.60;;;;;;4108177;28;19953;-85
2023/04/26 02:46:44;;;;;;;;;;;3.80;67.70;;;;;;4107231;28;20416;-85
2023/04/26 02:48:45;;;;;;;;;;;3.90;67.80;;;;;;4109383;28;19960;-86
2023/04/26 02:50:46;;;;;;;;;;;3.90;68.00;;;;;;4110004;28;20414;-85
2023/04/26 02:52:46;;;;;;;;;;;3.80;68.00;;;;;;4113904;28;20412;-85
2023/04/26 02:54:47;;;;;;;;;;;3.90;68.20;;;;;;4114510;28;20331;-85
2023/04/26 02:56:47;;;;;;;;;;;3.80;68.20;;;;;;4110953;28;19929;-85
2023/04/26 02:58:48;;;;;;;;;;;3.80;68.20;;;;;;4111716;28;19922;-85
2023/04/26 03:00:48;;;;;;;;;;;3.80;68.20;;;;;;4110292;28;19925;-85
2023/04/26 03:02:49;;;;;;;;;;;3.90;68.30;;;;;;4112670;28;19929;-86
2023/04/26 03:04:49;;;;;;;;;;;3.80;68.30;;;;;;4111004;28;20344;-85
2023/04/26 03:06:50;;;;;;;;;;;3.80;68.00;;;;;;4110511;28;21113;-85
2023/04/26 03:08:51;;;;;;;;;;;3.80;68.00;;;;;;4108929;28;19922;-86
2023/04/26 03:10:51;;;;;;;;;;;3.80;67.90;;;;;;4111741;28;20415;-85
2023/04/26 03:12:52;;;;;;;;;;;3.80;67.80;;;;;;4113891;28;20506;-85
2023/04/26 03:14:52;;;;;;;;;;;3.70;67.70;;;;;;4108958;28;20084;-85
2023/04/26 03:16:53;;;;;;;;;;;3.80;67.70;;;;;;4112107;28;20001;-85
2023/04/26 03:18:54;;;;;;;;;;;3.70;67.60;;;;;;4112807;28;20136;-85
2023/04/26 03:20:54;;;;;;;;;;;3.70;67.60;;;;;;4111363;28;19925;-85
2023/04/26 03:22:55;;;;;;;;;;;3.70;67.60;;;;;;4095331;28;20436;-86
2023/04/26 03:24:56;;;;;;;;;;;3.70;67.50;;;;;;4110234;28;19922;-86
2023/04/26 03:26:57;;;;;;;;;;;3.70;67.50;;;;;;4112305;28;19942;-85
2023/04/26 03:28:57;;;;;;;;;;;3.70;67.40;;;;;;4126166;28;19914;-85
2023/04/26 03:30:58;;;;;;;;;;;3.60;67.30;;;;;;4111690;28;20272;-85
2023/04/26 03:32:59;;;;;;;;;;;3.60;67.30;;;;;;4112807;28;19937;-86
2023/04/26 03:35:02;;;;;;;;;;;3.70;67.40;;;;;;4111151;28;20052;-85
2023/04/26 03:37:03;;;;;;;;;;;3.60;67.50;;;;;;4109937;28;19922;-85
2023/04/26 03:39:04;;;;;;;;;;;3.60;67.50;;;;;;4106995;28;20379;-85
2023/04/26 03:41:05;;;;;;;;;;;3.60;67.40;;;;;;4108804;28;19961;-84
2023/04/26 03:43:06;;;;;;;;;;;3.60;67.50;;;;;;4111570;28;19922;-84
2023/04/26 03:45:07;;;;;;;;;;;3.60;67.50;;;;;;4111398;28;19918;-84
2023/04/26 03:47:07;;;;;;;;;;;3.50;67.50;;;;;;4106272;28;19927;-84
2023/04/26 03:49:08;;;;;;;;;;;3.60;67.60;;;;;;4110634;28;20327;-85
2023/04/26 03:51:09;;;;;;;;;;;3.60;67.70;;;;;;4108645;28;19918;-85
2023/04/26 03:53:10;;;;;;;;;;;3.50;67.70;;;;;;4111265;28;20274;-86
2023/04/26 03:55:11;;;;;;;;;;;3.50;67.70;;;;;;4111406;28;19918;-85
2023/04/26 03:57:12;;;;;;;;;;;3.50;67.80;;;;;;4109352;28;19958;-86
2023/04/26 03:59:12;;;;;;;;;;;3.60;68.00;;;;;;4115493;28;19938;-87
2023/04/26 04:01:13;;;;;;;;;;;3.50;68.00;;;;;;4119909;28;20182;-86
2023/04/26 04:03:14;;;;;;;;;;;3.60;68.00;;;;;;4124777;28;19969;-85
2023/04/26 04:05:15;;;;;;;;;;;3.50;68.00;;;;;;4110115;28;19930;-85
2023/04/26 04:07:15;;;;;;;;;;;3.60;68.00;;;;;;4090599;28;19925;-85
2023/04/26 04:09:16;;;;;;;;;;;3.50;68.00;;;;;;4086390;28;19921;-85
2023/04/26 04:11:16;;;;;;;;;;;3.50;68.10;;;;;;4107766;28;19918;-86
2023/04/26 04:13:17;;;;;;;;;;;3.60;68.10;;;;;;4106981;28;20405;-85
2023/04/26 04:15:18;;;;;;;;;;;3.50;68.00;;;;;;4107055;28;19921;-84
2023/04/26 04:17:19;;;;;;;;;;;3.60;68.00;;;;;;4109305;28;19914;-85
2023/04/26 04:19:19;;;;;;;;;;;3.60;68.00;;;;;;4108972;28;20269;-84
2023/04/26 04:21:20;;;;;;;;;;;3.60;67.90;;;;;;4107649;28;19914;-85
2023/04/26 04:23:20;;;;;;;;;;;3.60;67.90;;;;;;4107647;28;19997;-85
2023/04/26 04:25:21;;;;;;;;;;;3.70;67.90;;;;;;4108281;28;20327;-85
2023/04/26 04:27:22;;;;;;;;;;;3.60;67.80;;;;;;4127219;28;19932;-84
2023/04/26 04:29:23;;;;;;;;;;;3.60;67.80;;;;;;4109886;28;20559;-85
2023/04/26 04:31:23;;;;;;;;;;;3.60;67.90;;;;;;4125327;28;19961;-86
2023/04/26 04:33:27;;;;;;;;;;;3.70;68.10;;;;;;4110882;28;20008;-85
2023/04/26 04:35:32;;;;;;;;;;;3.80;68.10;;;;;;4107430;28;19918;-86
2023/04/26 04:37:33;;;;;;;;;;;3.80;68.10;;;;;;4104113;28;20174;-85
2023/04/26 04:39:34;;;;;;;;;;;3.80;68.10;;;;;;4105500;28;19961;-86
2023/04/26 04:41:35;;;;;;;;;;;3.80;68.10;;;;;;4100054;28;20315;-84
2023/04/26 04:43:36;;;;;;;;;;;3.80;68.70;;;;;;4108615;28;19922;-86
2023/04/26 04:45:37;;;;;;;;;;;3.90;68.00;;;;;;4105701;28;19952;-85
2023/04/26 04:47:38;;;;;;;;;;;3.90;68.00;;;;;;4106143;28;19914;-85
2023/04/26 04:49:39;;;;;;;;;;;4.00;68.00;;;;;;4110318;28;20273;-85
2023/04/26 04:51:39;;;;;;;;;;;4.10;68.00;;;;;;4109290;28;19950;-85
2023/04/26 04:53:40;;;;;;;;;;;4.10;68.00;;;;;;4103768;28;20599;-85
2023/04/26 04:55:40;;;;;;;;;;;4.10;67.90;;;;;;4107138;28;20367;-86
2023/04/26 04:57:41;;;;;;;;;;;4.30;67.90;;;;;;4104567;28;20026;-85
2023/04/26 04:59:42;;;;;;;;;;;4.20;67.70;;;;;;4103867;28;20599;-86
2023/04/26 05:01:43;;;;;;;;;;;4.30;67.50;;;;;;4103405;28;20637;-85
2023/04/26 05:03:43;;;;;;;;;;;4.40;67.50;;;;;;4106571;28;19918;-86
2023/04/26 05:05:46;;;;;;;;;;;4.40;67.40;;;;;;4119163;28;20299;-85
2023/04/26 05:07:46;;;;;;;;;;;4.40;67.30;;;;;;4106562;28;19914;-84
2023/04/26 05:09:48;;;;;;;;;;;4.40;67.20;;;;;;4103895;28;20001;-85
2023/04/26 05:11:51;;;;;;;;;;;4.60;67.20;;;;;;4112592;28;19910;-86
2023/04/26 05:13:51;;;;;;;;;;;4.50;67.00;;;;;;4093215;28;20309;-85
2023/04/26 05:15:52;;;;;;;;;;;4.50;67.00;;;;;;4106497;28;19944;-85
2023/04/26 05:17:54;;;;;;;;;;;4.60;67.00;;;;;;4110221;28;19914;-84
2023/04/26 05:19:55;;;;;;;;;;;4.60;67.00;;;;;;4114391;28;19914;-85
2023/04/26 05:21:56;;;;;;;;;;;4.60;66.70;;;;;;4109558;28;19922;-85
2023/04/26 05:23:57;;;;;;;;;;;4.60;66.70;;;;;;4105535;28;19921;-85
2023/04/26 05:26:00;;;;;;;;;;;4.60;66.50;;;;;;4108890;28;19938;-85
2023/04/26 05:28:00;;;;;;;;;;;4.60;66.30;;;;;;4109799;28;20013;-85
2023/04/26 05:30:02;;;;;;;;;;;4.80;66.30;;;;;;4108323;28;20400;-85
2023/04/26 05:32:06;;;;;;;;;;;4.80;65.90;;;;;;4107543;28;19933;-85
2023/04/26 05:34:06;;;;;;;;;;;4.80;66.10;;;;;;4109703;28;20385;-85
2023/04/26 05:36:08;;;;;;;;;;;4.80;66.00;;;;;;4108441;28;19919;-85
2023/04/26 05:38:08;;;;;;;;;;;4.80;66.00;;;;;;4107444;28;19945;-86
2023/04/26 05:40:11;;;;;;;;;;;4.90;65.90;;;;;;4110269;28;19915;-85
2023/04/26 05:42:11;;;;;;;;;;;4.90;65.80;;;;;;4105432;28;19914;-85
2023/04/26 05:44:12;;;;;;;;;;;4.90;65.40;;;;;;4109681;28;19917;-86
2023/04/26 05:46:13;;;;;;;;;;;5.10;65.60;;;;;;4107765;28;20038;-84
2023/04/26 05:48:13;;;;;;;;;;;5.10;65.80;;;;;;4109838;28;20017;-85
2023/04/26 05:50:14;;;;;;;;;;;5.20;65.90;;;;;;4111223;28;19914;-85
2023/04/26 05:52:15;;;;;;;;;;;5.20;65.50;;;;;;4113262;28;19925;-85
2023/04/26 05:54:18;;;;;;;;;;;5.20;65.60;;;;;;4126100;28;19968;-84
2023/04/26 05:56:18;;;;;;;;;;;5.40;65.60;;;;;;4116322;28;20340;-84
2023/04/26 05:58:19;;;;;;;;;;;5.40;65.10;;;;;;4114451;28;20667;-84
2023/04/26 06:00:22;;;;;;;;;;;5.40;65.00;;;;;;4114540;28;20419;-84
2023/04/26 06:02:25;;;;;;;;;;;5.30;65.10;;;;;;4111889;28;19947;-83
2023/04/26 06:04:29;;;;;;;;;;;5.30;65.40;;;;;;4106842;28;19922;-84
2023/04/26 06:06:30;;;;;;;;;;;5.20;65.80;;;;;;4109287;28;19922;-85
2023/04/26 06:08:31;;;;;;;;;;;5.10;66.40;;;;;;4112090;28;19919;-85
2023/04/26 06:10:32;;;;;;;;;;;5.20;66.20;;;;;;4095026;28;20053;-84
2023/04/26 06:12:32;;;;;;;;;;;5.10;66.30;;;;;;4101142;28;19978;-84
2023/04/26 06:14:33;;;;;;;;;;;5.10;66.70;;;;;;4102645;28;20359;-84
2023/04/26 06:16:33;;;;;;;;;;;5.00;67.00;;;;;;4117073;28;19914;-85
2023/04/26 06:18:34;;;;;;;;;;;5.00;67.10;;;;;;4112755;28;20001;-85
2023/04/26 06:20:35;;;;;;;;;;;5.00;67.10;;;;;;4103659;28;20458;-85
2023/04/26 06:22:36;;;;;;;;;;;5.10;67.90;;;;;;4111600;28;19915;-85
2023/04/26 06:24:37;;;;;;;;;;;5.10;68.40;;;;;;4108876;28;19910;-86
2023/04/26 06:26:37;;;;;;;;;;;5.10;68.40;;;;;;4108995;28;20312;-85
2023/04/26 06:28:38;;;;;;;;;;;5.20;68.50;;;;;;4106679;28;19914;-84
2023/04/26 06:30:39;;;;;;;;;;;5.10;68.80;;;;;;4108400;28;20077;-84
2023/04/26 06:32:43;;;;;;;;;;;5.20;69.40;;;;;;4112797;28;20483;-85
2023/04/26 06:34:44;;;;;;;;;;;5.20;69.20;;;;;;4113692;28;20000;-86
2023/04/26 06:36:47;;;;;;;;;;;5.30;68.10;;;;;;4108109;28;19914;-85
2023/04/26 06:38:48;;;;;;;;;;;5.30;66.10;;;;;;4121764;28;20112;-84
2023/04/26 06:40:49;;;;;;;;;;;5.30;65.60;;;;;;4109317;28;20835;-86
2023/04/26 06:42:49;;;;;;;;;;;5.40;65.60;;;;;;4106765;28;19910;-85
2023/04/26 06:44:50;;;;;;;;;;;5.50;65.70;;;;;;4109788;28;20316;-84
2023/04/26 06:46:59;;;;;;;;;;;5.50;65.90;;;;;;4110018;28;19914;-85
2023/04/26 06:49:02;;;;;;;;;;;5.40;66.10;;;;;;4089516;28;19921;-84
2023/04/26 06:51:06;;;;;;;;;;;5.50;66.50;;;;;;4107477;28;19969;-84
2023/04/26 06:53:07;;;;;;;;;;;5.50;66.60;;;;;;4111276;28;19927;-84
2023/04/26 06:55:08;;;;;;;;;;;5.60;66.50;;;;;;4115920;28;19922;-85
2023/04/26 06:57:08;;;;;;;;;;;5.60;66.50;;;;;;4113271;28;19937;-85
2023/04/26 06:59:09;;;;;;;;;;;5.70;66.60;;;;;;4113671;28;19930;-85
2023/04/26 07:01:09;;;;;;;;;;;5.80;66.60;;;;;;4116771;28;20368;-85
2023/04/26 07:03:10;;;;;;;;;;;5.90;66.70;;;;;;4111351;28;19918;-85
2023/04/26 07:05:11;;;;;;;;;;;6.00;67.50;;;;;;4106149;28;19911;-85
2023/04/26 07:07:11;;;;;;;;;;;6.00;66.40;;;;;;4097629;28;20467;-85
2023/04/26 07:09:12;;;;;;;;;;;6.00;66.00;;;;;;4107184;28;20386;-84
2023/04/26 07:11:12;;;;;;;;;;;6.20;66.30;;;;;;4116278;28;20017;-85
2023/04/26 07:13:13;;;;;;;;;;;6.20;65.60;;;;;;4087741;28;19922;-85
2023/04/26 07:15:14;;;;;;;;;;;6.30;65.40;;;;;;4097887;28;19917;-84
2023/04/26 07:17:22;;;;;;;;;;;6.30;65.30;;;;;;4107402;28;19938;-85
2023/04/26 07:19:23;;;;;;;;;;;6.30;65.20;;;;;;4104816;28;19914;-85
2023/04/26 07:21:24;;;;;;;;;;;6.60;65.40;;;;;;4111532;28;19925;-86
2023/04/26 07:23:24;;;;;;;;;;;6.50;64.90;;;;;;4109729;28;19914;-84
2023/04/26 07:25:25;;;;;;;;;;;6.60;63.50;;;;;;4111366;28;20283;-84
2023/04/26 07:27:29;;;;;;;;;;;6.60;63.70;;;;;;4109024;28;20009;-84
2023/04/26 07:29:30;;;;;;;;;;;6.80;63.90;;;;;;4111086;28;20422;-84
2023/04/26 07:31:38;;;;;;;;;;;6.90;63.50;;;;;;4113556;28;19914;-84
2023/04/26 07:33:45;;;;;;;;;;;6.80;63.50;;;;;;4096460;28;20617;-84
2023/04/26 07:35:52;;;;;;;;;;;6.90;63.50;;;;;;4108106;28;20043;-82
2023/04/26 07:37:52;;;;;;;;;;;6.90;62.60;;;;;;4108300;28;19968;-85
2023/04/26 07:39:53;;;;;;;;;;;7.00;62.50;;;;;;4095038;28;19914;-84
2023/04/26 07:41:54;;;;;;;;;;;7.00;62.80;;;;;;4106430;28;19938;-85
2023/04/26 07:43:54;;;;;;;;;;;7.10;62.70;;;;;;4109443;28;19961;-85
2023/04/26 07:46:01;;;;;;;;;;;7.00;62.60;;;;;;4095884;28;19911;-85
2023/04/26 07:48:05;;;;;;;;;;;7.00;61.60;;;;;;4105654;28;19914;-84
2023/04/26 07:50:06;;;;;;;;;;;6.90;61.50;;;;;;4109093;28;20014;-85
2023/04/26 07:52:09;;;;;;;;;;;6.90;61.10;;;;;;4111816;28;19994;-86
2023/04/26 07:54:09;;;;;;;;;;;6.80;61.20;;;;;;4110235;28;19939;-86
2023/04/26 07:56:10;;;;;;;;;;;6.80;60.90;;;;;;4111173;28;19941;-84
2023/04/26 07:58:13;;;;;;;;;;;6.70;61.00;;;;;;4110238;28;19925;-86
2023/04/26 08:00:21;;;;;;;;;;;6.60;61.30;;;;;;4109740;28;19936;-85
2023/04/26 08:02:22;;;;;;;;;;;6.50;62.10;;;;;;4094594;28;19914;-83
2023/04/26 08:04:29;;;;;;;;;;;6.50;63.20;;;;;;4095254;28;20005;-85
2023/04/26 08:06:30;;;;;;;;;;;6.50;63.70;;;;;;4108004;28;20084;-84
2023/04/26 08:08:34;;;;;;;;;;;6.50;64.10;;;;;;4110509;28;19949;-86
2023/04/26 08:10:41;;;;;;;;;;;6.50;63.90;;;;;;4108799;28;19910;-84
2023/04/26 08:12:42;;;;;;;;;;;6.60;63.70;;;;;;4110087;28;20076;-86
2023/04/26 08:14:42;;;;;;;;;;;6.70;63.60;;;;;;4111687;28;19946;-84
2023/04/26 08:16:43;;;;;;;;;;;6.60;62.80;;;;;;4111670;28;19983;-84
2023/04/26 08:18:43;;;;;;;;;;;6.70;63.10;;;;;;4110012;28;19925;-86
2023/04/26 08:20:46;;;;;;;;;;;6.80;62.90;;;;;;4107241;28;19921;-84
2023/04/26 08:22:46;;;;;;;;;;;6.90;62.60;;;;;;4107351;28;19943;-85
2023/04/26 08:24:50;;;;;;;;;;;7.00;63.20;;;;;;4112738;28;20634;-86
2023/04/26 08:26:54;;;;;;;;;;;7.10;63.40;;;;;;4111165;28;19938;-85
2023/04/26 08:28:56;;;;;;;;;;;7.10;63.00;;;;;;4123050;28;19914;-85
2023/04/26 08:30:58;;;;;;;;;;;7.30;62.50;;;;;;4109427;28;19957;-85
2023/04/26 08:33:00;;;;;;;;;;;7.30;62.40;;;;;;4094392;28;19918;-85
2023/04/26 08:35:00;;;;;;;;;;;7.40;61.90;;;;;;4110415;28;20014;-85
2023/04/26 08:37:01;;;;;;;;;;;7.40;61.80;;;;;;4110953;28;19918;-84
2023/04/26 08:39:03;;;;;;;;;;;7.50;61.60;;;;;;4106300;28;19921;-84
2023/04/26 08:41:03;;;;;;;;;;;7.60;61.10;;;;;;4109224;28;20069;-84
2023/04/26 08:43:04;;;;;;;;;;;7.70;60.60;;;;;;4108305;28;19925;-85
2023/04/26 08:45:06;;;;;;;;;;;7.80;60.20;;;;;;4107014;28;20413;-84
2023/04/26 08:47:17;;;;;;;;;;;7.80;59.70;;;;;;4092975;28;19997;-85
2023/04/26 08:49:24;;;;;;;;;;;7.90;59.60;;;;;;4108048;28;19930;-85
2023/04/26 08:51:26;;;;;;;;;;;7.90;59.60;;;;;;4111527;28;19910;-85
2023/04/26 08:53:27;;;;;;;;;;;8.10;59.30;;;;;;4103333;28;19918;-86
2023/04/26 08:55:36;;;;;;;;;;;8.20;59.60;;;;;;4111437;28;20041;-87
2023/04/26 08:57:37;;;;;;;;;;;8.20;58.80;;;;;;4108839;28;20017;-84
2023/04/26 08:59:38;;;;;;;;;;;8.30;58.40;;;;;;4104632;28;19918;-85
2023/04/26 09:01:39;;;;;;;;;;;8.50;58.70;;;;;;4108125;28;20108;-86
2023/04/26 09:03:40;;;;;;;;;;;8.50;58.20;;;;;;4107388;28;19918;-86
2023/04/26 09:05:44;;;;;;;;;;;8.50;58.30;;;;;;4105932;28;19938;-86
2023/04/26 09:07:45;;;;;;;;;;;8.60;58.40;;;;;;4104138;28;20013;-84
2023/04/26 09:09:55;;;;;;;;;;;8.60;58.40;;;;;;4104538;28;19929;-85
2023/04/26 09:11:59;;;;;;;;;;;8.70;58.70;;;;;;4109699;28;19917;-85
2023/04/26 09:13:59;;;;;;;;;;;8.70;58.70;;;;;;4107237;28;19933;-85
2023/04/26 09:16:00;;;;;;;;;;;8.90;59.00;;;;;;4106175;28;20333;-86
2023/04/26 09:18:15;;;;;;;;;;;8.90;59.00;;;;;;4109525;28;19914;-84
2023/04/26 09:20:26;;;;;;;;;;;8.90;57.50;;;;;;4104852;28;19922;-84
2023/04/26 09:22:33;;;;;;;;;;;8.90;56.20;;;;;;4092716;28;19919;-87
2023/04/26 09:24:47;;;;;;;;;;;8.90;56.30;;;;;;4112583;28;19914;-84
2023/04/26 09:27:00;;;;;;;;;;;9.00;56.60;;;;;;4103511;28;19969;-83
2023/04/26 09:29:10;;;;;;;;;;;8.90;56.50;;;;;;4108806;28;19945;-84
2023/04/26 09:31:12;;;;;;;;;;;8.90;56.20;;;;;;4103027;28;19910;-84
2023/04/26 09:33:12;;;;;;;;;;;8.90;56.70;;;;;;4120443;28;20013;-86
2023/04/26 09:35:31;;;;;;;;;;;8.80;57.20;;;;;;4107628;28;19918;-85
2023/04/26 09:37:32;;;;;;;;;;;8.80;58.10;;;;;;4105906;28;19969;-85
2023/04/26 09:39:34;;;;;;;;;;;8.80;58.50;;;;;;4106049;28;20336;-84
2023/04/26 09:41:42;;;;;;;;;;;8.80;58.60;;;;;;4108171;28;19945;-84
2023/04/26 09:43:43;;;;;;;;;;;8.70;58.50;;;;;;4107479;28;19914;-84
2023/04/26 09:45:47;;;;;;;;;;;8.70;58.40;;;;;;4110633;28;19977;-84
2023/04/26 09:47:48;;;;;;;;;;;8.70;57.90;;;;;;4108731;28;19919;-84
2023/04/26 09:49:50;;;;;;;;;;;8.60;57.60;;;;;;4107465;28;20281;-84
2023/04/26 09:52:00;;;;;;;;;;;8.60;57.40;;;;;;4108476;28;19914;-84
2023/04/26 09:54:00;;;;;;;;;;;8.60;57.30;;;;;;4106865;28;19915;-84
2023/04/26 09:56:14;;;;;;;;;;;8.50;57.40;;;;;;4110032;28;19922;-85
2023/04/26 09:58:15;;;;;;;;;;;8.50;57.80;;;;;;4108355;28;20372;-83
2023/04/26 10:00:16;;;;;;;;;;;8.50;58.20;;;;;;4106865;28;19940;-84
2023/04/26 10:02:16;;;;;;;;;;;8.60;58.10;;;;;;4105976;28;19914;-84
2023/04/26 10:04:17;;;;;;;;;;;8.60;58.00;;;;;;4110025;28;20359;-85
2023/04/26 10:06:18;;;;;;;;;;;8.70;57.30;;;;;;4107045;28;19926;-83
2023/04/26 10:08:18;;;;;;;;;;;8.60;56.80;;;;;;4111460;28;20089;-84
2023/04/26 10:10:20;;;;;;;;;;;8.70;55.60;;;;;;4111818;28;19933;-85
2023/04/26 10:12:20;;;;;;;;;;;8.70;55.30;;;;;;4115364;28;19986;-84
2023/04/26 10:14:21;;;;;;;;;;;8.80;55.40;;;;;;4118097;28;20331;-85
2023/04/26 10:16:22;;;;;;;;;;;8.90;55.50;;;;;;4115417;28;19997;-85
2023/04/26 10:18:23;;;;;;;;;;;9.00;55.30;;;;;;4106661;28;20163;-84
2023/04/26 10:20:27;;;;;;;;;;;9.10;55.90;;;;;;4106082;28;20435;-83
2023/04/26 10:22:30;;;;;;;;;;;9.30;55.30;;;;;;4105960;28;20020;-83
2023/04/26 10:24:33;;;;;;;;;;;9.30;55.00;;;;;;4107378;28;19927;-84
2023/04/26 10:26:51;;;;;;;;;;;9.20;54.60;;;;;;4108246;28;20447;-83
2023/04/26 10:28:53;;;;;;;;;;;9.20;55.40;;;;;;4106741;28;19960;-84
2023/04/26 10:30:57;;;;;;;;;;;9.10;55.80;;;;;;4108843;28;19921;-84
2023/04/26 10:32:57;;;;;;;;;;;9.10;55.60;;;;;;4108639;28;20328;-85
2023/04/26 10:35:08;;;;;;;;;;;9.00;54.60;;;;;;4111163;28;19914;-84
2023/04/26 10:37:16;;;;;;;;;;;9.00;53.90;;;;;;4111600;28;19920;-83
2023/04/26 10:39:17;;;;;;;;;;;9.00;52.90;;;;;;4106643;28;19915;-85
2023/04/26 10:41:34;;;;;;;;;;;9.00;51.90;;;;;;4110088;28;19914;-84
2023/04/26 10:43:35;;;;;;;;;;;8.90;51.80;;;;;;4114540;28;19953;-86
2023/04/26 10:45:38;;;;;;;;;;;8.90;52.50;;;;;;4111380;28;20363;-84
2023/04/26 10:47:39;;;;;;;;;;;8.90;52.70;;;;;;4111196;28;19961;-85
2023/04/26 10:49:44;;;;;;;;;;;8.90;52.20;;;;;;4113808;28;19918;-84
2023/04/26 10:52:21;;;;;;;;;;;8.80;52.40;;;;;;4093752;28;19917;-85
2023/04/26 10:54:22;;;;;;;;;;;8.80;52.80;;;;;;4088912;28;20348;-84
2023/04/26 10:56:23;;;;;;;;;;;8.80;53.30;;;;;;4070972;29;19919;-84
2023/04/26 10:58:36;;;;;;;;;;;8.80;53.90;;;;;;4096442;28;20001;-85
2023/04/26 11:00:37;;;;;;;;;;;8.90;54.10;;;;;;4096024;28;19918;-84
2023/04/26 11:02:43;;;;;;;;;;;8.80;52.70;;;;;;4093491;28;19917;-84
2023/04/26 11:04:51;;;;;;;;;;;8.90;52.30;;;;;;4092650;28;19919;-83
2023/04/26 11:06:56;;;;;;;;;;;8.90;53.00;;;;;;4076719;29;19915;-84
2023/04/26 11:08:58;;;;;;;;;;;8.90;51.40;;;;;;4090789;28;19918;-84
2023/04/26 11:11:02;;;;;;;;;;;9.00;50.70;;;;;;4077318;29;19912;-84
2023/04/26 11:13:03;;;;;;;;;;;8.90;50.50;;;;;;4069867;29;19919;-83
2023/04/26 11:15:04;;;;;;;;;;;9.00;50.60;;;;;;4063732;29;19919;-84
2023/04/26 11:17:05;;;;;;;;;;;8.90;50.80;;;;;;4075613;29;19966;-84
2023/04/26 11:19:06;;;;;;;;;;;9.10;52.20;;;;;;4089398;28;19919;-85
2023/04/26 11:21:07;;;;;;;;;;;9.00;53.10;;;;;;4073983;29;19919;-84
2023/04/26 11:23:08;;;;;;;;;;;8.90;54.30;;;;;;4074155;29;20004;-85
2023/04/26 11:25:12;;;;;;;;;;;9.00;54.50;;;;;;4075108;29;19922;-85
2023/04/26 11:30:31;;;;;;;;;;;8.80;54.60;;;;;;4084455;29;19922;-85
2023/04/26 11:32:34;;;;;;;;;;;8.60;55.10;;;;;;4078493;29;19919;-85
2023/04/26 11:34:35;;;;;;;;;;;8.60;55.60;;;;;;4076831;29;20381;-84
2023/04/26 11:36:37;;;;;;;;;;;8.60;57.00;;;;;;4076244;29;19926;-83
2023/04/26 11:38:37;;;;;;;;;;;8.50;57.20;;;;;;4095382;29;19921;-84
2023/04/26 11:40:38;;;;;;;;;;;8.40;57.40;;;;;;4094128;29;19957;-84
2023/04/26 11:42:42;;;;;;;;;;;8.50;58.40;;;;;;4090169;29;19961;-82
2023/04/26 11:44:49;;;;;;;;;;;8.50;57.40;;;;;;4093553;29;19925;-85
2023/04/26 11:46:50;;;;;;;;;;;8.40;55.80;;;;;;4077073;29;19921;-83
2023/04/26 11:48:50;;;;;;;;;;;8.40;55.60;;;;;;4086667;29;19922;-84
2023/04/26 11:50:51;;;;;;;;;;;8.30;55.80;;;;;;4089939;28;20380;-85
2023/04/26 11:52:55;;;;;;;;;;;8.20;56.10;;;;;;4090736;29;19925;-83
2023/04/26 11:55:06;;;;;;;;;;;8.10;56.00;;;;;;4076415;29;19930;-84
2023/04/26 11:57:13;;;;;;;;;;;8.10;56.20;;;;;;4092304;28;19966;-85
2023/04/26 11:59:24;;;;;;;;;;;8.00;56.60;;;;;;4071234;29;20643;-85
2023/04/26 12:01:26;;;;;;;;;;;8.00;56.70;;;;;;4090141;29;19925;-85
2023/04/26 12:03:31;;;;;;;;;;;7.90;57.30;;;;;;4092803;29;20341;-84
2023/04/26 12:05:31;;;;;;;;;;;7.90;57.70;;;;;;4106610;28;19918;-84
2023/04/26 12:07:36;;;;;;;;;;;8.00;58.10;;;;;;4106546;28;20682;-85
2023/04/26 12:09:39;;;;;;;;;;;8.00;57.90;;;;;;4109846;28;19918;-84